METAR Data
IDs: Format: Raw Decoded Include TAF

Data at: 1156 UTC 21 Oct 2018

KXBP 211135Z AUTO 00000KT 10SM CLR 07/07 A3037 RMK AO2 T00710071 PNO
KXBP 211115Z AUTO 00000KT 10SM CLR 08/08 A3036 RMK AO2 T00760076
KXBP 211055Z AUTO 25003KT 10SM CLR 08/08 A3036 RMK AO2 T00770077
KXBP 211035Z AUTO 00000KT 10SM CLR 08/08 A3036 RMK AO2 T00810081 PNO
KXBP 211015Z AUTO 00000KT 10SM CLR 08/08 A3035 RMK AO2 T00810081
KXBP 210955Z AUTO 22003KT 10SM CLR 08/08 A3035 RMK AO2 T00780078 PNO
KXBP 210935Z AUTO 00000KT 10SM CLR 08/08 A3035 RMK AO2 T00750075
KXBP 210915Z AUTO 00000KT 10SM CLR 08/08 A3035 RMK AO2 T00750075 PNO
KXBP 210855Z AUTO 00000KT 10SM CLR 08/08 A3035 RMK AO2 6//// T00770077 PNO
KXBP 210835Z AUTO 22003KT 10SM CLR 09/09 A3036 RMK AO2 T00860086 PNO
KXBP 210815Z AUTO 23003KT 10SM CLR 08/08 A3036 RMK AO2 T00830083 PNO
KXBP 210755Z AUTO 00000KT 10SM CLR 08/08 A3035 RMK AO2 T00830083
KXBP 210735Z AUTO 00000KT 10SM CLR 09/09 A3036 RMK AO2 T00900090
KXBP 210715Z AUTO 00000KT 10SM CLR 09/09 A3036 RMK AO2 T00920092
KXBP 210655Z AUTO 00000KT 10SM CLR 09/09 A3036 RMK AO2 T00940094 PNO
KXBP 210635Z AUTO 00000KT 10SM CLR 10/09 A3036 RMK AO2 T00970093
KXBP 210615Z AUTO 23003KT 10SM CLR 10/10 A3036 RMK AO2 T00970096
KXBP 210555Z AUTO 00000KT 10SM CLR 09/09 A3036 RMK AO2 6//// T00920092 10169 20090 402250090 PNO
KXBP 210535Z AUTO 00000KT 10SM CLR 09/09 A3036 RMK AO2 T00920092
KXBP 210515Z AUTO 00000KT 10SM CLR 10/10 A3036 RMK AO2 T00950095 PNO
KXBP 210455Z AUTO 00000KT 10SM CLR 10/10 A3037 RMK AO2 T00970097
KXBP 210435Z AUTO 00000KT 10SM CLR 10/10 A3037 RMK AO2 T00980098
KXBP 210415Z AUTO 00000KT 10SM CLR 10/10 A3037 RMK AO2 T01010101 PNO
KXBP 210355Z AUTO 00000KT 10SM CLR 10/10 A3036 RMK AO2 T01010101 PNO
KXBP 210335Z AUTO 00000KT 10SM CLR 10/10 A3036 RMK AO2 T01020102
KXBP 210315Z AUTO 00000KT 10SM CLR 10/10 A3036 RMK AO2 T01020102 PNO
KXBP 210255Z AUTO 00000KT 10SM CLR 11/11 A3035 RMK AO2 6//// T01050105 PNO
KXBP 210235Z AUTO 00000KT 10SM CLR 11/11 A3035 RMK AO2 T01100110
KXBP 210215Z AUTO 00000KT 10SM CLR 11/11 A3034 RMK AO2 T01090109 PNO
KXBP 210155Z AUTO 00000KT 10SM CLR 11/11 A3034 RMK AO2 T01100110
KXBP 210135Z AUTO 00000KT 5SM BR CLR 11/11 A3033 RMK AO2 T01100110 PNO
KXBP 210115Z AUTO 00000KT 10SM CLR 12/12 A3033 RMK AO2 T01170117
KXBP 210055Z AUTO 00000KT 10SM CLR 12/12 A3033 RMK AO2 T01220122
KXBP 210035Z AUTO 00000KT 10SM CLR 13/11 A3032 RMK AO2 T01310110 PNO
KXBP 210015Z AUTO 00000KT 10SM CLR 17/10 A3031 RMK AO2 T01650097
KXBP 202355Z AUTO 00000KT 10SM CLR 17/10 A3031 RMK AO2 6//// T01680103 10225 20168 PNO
KXBP 202335Z AUTO 01004KT 10SM CLR 18/10 A3030 RMK AO2 T01800100
KXBP 202315Z AUTO 02005KT 10SM CLR 19/10 A3030 RMK AO2 T01920096 PNO
KXBP 202255Z AUTO 02006KT 10SM CLR 20/09 A3029 RMK AO2 T02000086
KXBP 202235Z AUTO 03007KT 10SM CLR 20/08 A3029 RMK AO2 T02020081
KXBP 202215Z AUTO 02008G15KT 10SM CLR 21/07 A3029 RMK AO2 T02070070 PNO
KXBP 202155Z AUTO 03011G15KT 10SM CLR 21/06 A3028 RMK AO2 T02100062
KXBP 202135Z AUTO 02011G17KT 10SM CLR 22/06 A3028 RMK AO2 T02150061 PNO
KXBP 202115Z AUTO 03011G16KT 10SM CLR 22/08 A3027 RMK AO2 T02190078 PNO
KXBP 202055Z AUTO 02011G17KT 10SM CLR 22/09 A3027 RMK AO2 6//// T02190087
KXBP 202035Z AUTO 03009G14KT 10SM CLR 22/09 A3027 RMK AO2 T02200093 PNO
KXBP 202015Z AUTO 01010G15KT 10SM CLR 22/09 A3027 RMK AO2 T02240094
KXBP 201955Z AUTO 01009G16KT 10SM CLR 22/10 A3027 RMK AO2 T02160099 PNO
KXBP 201935Z AUTO 02009G15KT 10SM CLR 22/11 A3027 RMK AO2 T02160113
KXBP 201915Z AUTO 36007KT 10SM CLR 21/11 A3027 RMK AO2 T02100113
KXBP 201855Z AUTO 02006KT 10SM CLR 21/12 A3028 RMK AO2 T02110118 PNO
KXBP 201835Z AUTO 04006KT 10SM CLR 21/12 A3029 RMK AO2 T02100115
KXBP 201815Z AUTO 02008KT 10SM CLR 21/12 A3029 RMK AO2 T02100119
KXBP 201755Z AUTO 06007KT 10SM CLR 20/12 A3030 RMK AO2 6//// T02010119 10202 20120 PNO
KXBP 201735Z AUTO 06007KT 10SM SCT018 SCT024 20/13 A3030 RMK AO2 T01990125
KXBP 201715Z AUTO 05006KT 10SM SCT018 SCT024 19/15 A3031 RMK AO2 T01920148
KXBP 201655Z AUTO 06007KT 10SM SCT016 19/15 A3031 RMK AO2 T01910150 PNO
KXBP 201635Z AUTO 06006KT 10SM BKN014 BKN020 18/15 A3031 RMK AO2 T01820153 PNO
KXBP 201615Z AUTO 01005KT 10SM BKN014 17/16 A3031 RMK AO2 T01650161
KXBP 201555Z AUTO 00000KT 10SM SCT010 SCT013 16/16 A3031 RMK AO2 T01550155 PNO
KXBP 201535Z AUTO 33004KT 10SM SCT008 SCT013 15/15 A3031 RMK AO2 T01510151
KXBP 201515Z AUTO 36004KT 10SM SCT004 15/15 A3030 RMK AO2 T01500150 PNO
KXBP 201455Z AUTO 34004KT 10SM BKN004 15/15 A3029 RMK AO2 6//// T01490149 PNO
KXBP 201435Z AUTO 33003KT 10SM OVC002 14/14 A3029 RMK AO2 T01400140
KXBP 201415Z AUTO 35004KT 5SM BR OVC002 14/14 A3027 RMK AO2 T01360136
KXBP 201355Z AUTO 34004KT 3SM BR OVC002 14/14 A3027 RMK AO2 T01360136
KXBP 201335Z AUTO 33004KT 1 1/2SM BR OVC002 13/13 A3026 RMK AO2 VIS 3/4V5 T01340134 PNO
KXBP 201315Z AUTO 00000KT 1/4SM FG OVC002 13/13 A3025 RMK AO2 T01280128 PNO
KXBP 201255Z AUTO 00000KT 1/4SM FG OVC002 13/13 A3025 RMK AO2 T01260126 PNO
KXBP 201235Z AUTO 00000KT 1/2SM FG OVC002 13/13 A3024 RMK AO2 T01250125 PNO
KXBP 201215Z AUTO 00000KT 1 1/4SM BR OVC002 13/13 A3024 RMK AO2 T01250125 PNO
KXBP 201155Z AUTO 00000KT 3/4SM BR OVC002 12/12 A3023 RMK AO2 6//// 7//// T01200120 10136 20101
KXBP 201135Z AUTO 00000KT 1/2SM FG OVC002 12/12 A3022 RMK AO2 T01200120
KXBP 201115Z AUTO 00000KT 2SM BR OVC002 12/12 A3022 RMK AO2 T01210121 PNO
KXBP 201055Z AUTO 00000KT 3/4SM BR VV005 10/10 A3021 RMK AO2 VIS 1/2V2 T01010101 PNO
KXBP 201035Z AUTO 00000KT 2SM BR CLR 11/11 A3020 RMK AO2 VIS 1 1/4V4 T01060106 PNO
KXBP 201015Z AUTO 00000KT 1/2SM FG VV005 11/11 A3020 RMK AO2 T01070107
KXBP 200955Z AUTO 00000KT 1SM BR VV007 12/12 A3020 RMK AO2 T01180118
KXBP 200935Z AUTO 00000KT 1 1/4SM BR VV007 11/11 A3019 RMK AO2 T01100110 PNO
KXBP 200915Z AUTO 00000KT 1/2SM FG VV005 11/11 A3019 RMK AO2 T01110111
KXBP 200855Z AUTO 00000KT 1/4SM FG VV002 12/12 A3018 RMK AO2 6//// T01150115
KXBP 200835Z AUTO 00000KT 1/2SM FG VV005 12/12 A3018 RMK AO2 T01170117 PNO
KXBP 200815Z AUTO 00000KT 3/4SM BR VV005 12/12 A3019 RMK AO2 T01200120
KXBP 200755Z AUTO 00000KT 7SM CLR 13/13 A3019 RMK AO2 T01250125 PNO
KXBP 200735Z AUTO 00000KT 3SM BR CLR 13/13 A3019 RMK AO2 T01260126
KXBP 200715Z AUTO 00000KT 10SM CLR 13/13 A3018 RMK AO2 T01300130
KXBP 200655Z AUTO 00000KT 4SM BR CLR 13/13 A3019 RMK AO2 LTG DSNT S T01300130 PNO
KXBP 200635Z AUTO 00000KT 10SM CLR 13/13 A3018 RMK AO2 T01300130 PNO
KXBP 200615Z AUTO 00000KT 10SM CLR 13/13 A3018 RMK AO2 T01330133 PNO
KXBP 200555Z AUTO 00000KT 10SM CLR 14/14 A3019 RMK AO2 6//// T01360136 10155 20136 401560132 PNO
KXBP 200535Z AUTO 00000KT 10SM CLR 14/14 A3018 RMK AO2 T01400140
KXBP 200515Z AUTO 00000KT 10SM CLR 14/14 A3018 RMK AO2 T01400140
KXBP 200455Z AUTO 00000KT 10SM CLR 14/14 A3018 RMK AO2 T01410141
KXBP 200435Z AUTO 00000KT 10SM CLR 14/14 A3018 RMK AO2 T01400140 PNO
KXBP 200415Z AUTO 00000KT 10SM CLR 14/14 A3019 RMK AO2 T01400140
KXBP 200355Z AUTO 00000KT 10SM CLR 14/14 A3019 RMK AO2 T01420142 PNO
KXBP 200335Z AUTO 00000KT 10SM CLR 15/15 A3019 RMK AO2 T01450145
KXBP 200315Z AUTO 00000KT 10SM CLR 15/15 A3019 RMK AO2 T01500150 PNO
KXBP 200255Z AUTO 00000KT 10SM CLR 15/15 A3019 RMK AO2 6//// T01510151 PNO
KXBP 200235Z AUTO 00000KT 10SM SCT120 15/15 A3018 RMK AO2 T01520152 PNO
KXBP 200215Z AUTO 00000KT 10SM BKN009 15/15 A3018 RMK AO2 T01530153
KXBP 200155Z AUTO 00000KT 10SM OVC011 16/16 A3018 RMK AO2 T01550155 PNO
KXBP 200135Z AUTO 00000KT 10SM OVC011 16/16 A3017 RMK AO2 T01550155 PNO
KXBP 200115Z AUTO 00000KT 10SM OVC011 16/16 A3017 RMK AO2 T01550155 PNO
KXBP 200055Z AUTO 00000KT 10SM OVC011 16/16 A3017 RMK AO2 T01550155
KXBP 200035Z AUTO 00000KT 10SM OVC011 16/16 A3016 RMK AO2 T01550155 PNO
KXBP 200015Z AUTO 00000KT 10SM -RA BKN013 BKN060 OVC100 16/16 A3016 RMK AO2 T01550155